createdAt,value
2017-10-24T00:01:48.294Z,42.17
2017-10-24T00:04:15.592Z,40.57
2017-10-24T00:06:42.929Z,36.37
2017-10-24T00:09:10.230Z,33.10
2017-10-24T00:11:37.565Z,36.10
2017-10-24T00:14:04.868Z,35.40
2017-10-24T00:16:32.188Z,31.83
2017-10-24T00:18:59.493Z,36.80
2017-10-24T00:21:27.088Z,36.10
2017-10-24T00:23:54.380Z,31.93
2017-10-24T00:26:21.701Z,30.03
2017-10-24T00:28:49.024Z,36.40
2017-10-24T00:31:16.341Z,34.80
2017-10-24T00:33:43.665Z,37.57
2017-10-24T00:36:11.004Z,31.30
2017-10-24T00:38:38.330Z,31.17
2017-10-24T00:41:05.629Z,34.00
2017-10-24T00:43:32.966Z,32.70
2017-10-24T00:46:00.320Z,32.33
2017-10-24T00:48:27.639Z,31.20
2017-10-24T00:50:54.941Z,36.00
2017-10-24T00:53:22.256Z,37.97
2017-10-24T00:55:49.598Z,30.30
2017-10-24T00:58:16.937Z,36.93
2017-10-24T01:00:44.245Z,31.73
2017-10-24T01:03:11.578Z,34.50
2017-10-24T01:05:38.889Z,35.63
2017-10-24T01:08:06.260Z,33.40
2017-10-24T01:10:33.607Z,31.63
2017-10-24T01:13:00.974Z,29.03
2017-10-24T01:15:28.297Z,34.20
2017-10-24T01:17:55.629Z,25.87
2017-10-24T01:20:22.990Z,25.70
2017-10-24T01:22:50.309Z,28.07
2017-10-24T01:25:17.631Z,24.47
2017-10-24T01:27:45.069Z,30.40
2017-10-24T01:30:12.401Z,24.93
2017-10-24T01:32:39.726Z,25.50
2017-10-24T01:35:07.040Z,24.83
2017-10-24T01:37:34.665Z,25.90
2017-10-24T01:40:01.981Z,27.00
2017-10-24T01:42:29.301Z,30.70
2017-10-24T01:44:56.625Z,34.23
2017-10-24T01:47:23.948Z,34.87
2017-10-24T01:49:51.249Z,35.63
2017-10-24T01:52:18.613Z,48.40
2017-10-24T01:54:45.933Z,57.60
2017-10-24T01:57:13.261Z,49.43
2017-10-24T01:59:40.584Z,100.07
2017-10-24T02:02:07.980Z,105.20
2017-10-24T02:04:35.315Z,130.27
2017-10-24T02:07:02.620Z,105.13
2017-10-24T02:09:30.012Z,130.30
2017-10-24T02:11:57.321Z,91.03
2017-10-24T02:14:24.817Z,122.57
2017-10-24T02:16:52.169Z,113.13
2017-10-24T02:19:19.501Z,104.57
2017-10-24T02:21:46.800Z,84.53
2017-10-24T02:24:14.129Z,233.30
2017-10-24T02:26:41.443Z,74.07
2017-10-24T02:29:08.760Z,97.10
2017-10-24T02:31:36.108Z,185.37
2017-10-24T02:34:03.465Z,94.77
2017-10-24T02:36:30.829Z,72.73
2017-10-24T02:38:58.128Z,75.80
2017-10-24T02:41:25.471Z,409.13
2017-10-24T02:43:52.819Z,106.60
2017-10-24T02:46:20.161Z,141.70
2017-10-24T02:48:47.481Z,88.20
2017-10-24T02:51:14.785Z,98.40
2017-10-24T02:53:42.102Z,104.87
2017-10-24T02:56:09.405Z,97.53
2017-10-24T02:58:36.745Z,148.37
2017-10-24T03:01:04.069Z,88.87
2017-10-24T03:03:31.403Z,156.30
2017-10-24T03:05:58.730Z,76.67
2017-10-24T03:08:26.063Z,154.03
2017-10-24T03:10:53.365Z,179.43
2017-10-24T03:13:20.704Z,240.83
2017-10-24T03:15:48.013Z,115.27
2017-10-24T03:18:15.345Z,235.73
2017-10-24T03:20:42.659Z,82.00
2017-10-24T03:23:09.979Z,165.80
2017-10-24T03:25:37.305Z,119.83
2017-10-24T03:28:04.640Z,101.07
2017-10-24T03:30:31.965Z,82.23
2017-10-24T03:32:59.296Z,109.90
2017-10-24T03:35:26.630Z,262.67
2017-10-24T03:37:53.933Z,93.47
2017-10-24T03:40:21.416Z,66.83
2017-10-24T03:42:48.860Z,59.40
2017-10-24T03:45:16.190Z,112.17
2017-10-24T03:47:43.508Z,63.60
2017-10-24T03:50:10.849Z,62.07
2017-10-24T03:52:38.181Z,67.03
2017-10-24T03:55:05.542Z,98.67
2017-10-24T03:57:32.865Z,81.07
2017-10-24T04:00:00.168Z,78.47
2017-10-24T04:02:27.488Z,61.67
2017-10-24T04:04:54.797Z,70.77
2017-10-24T04:07:22.124Z,178.27
2017-10-24T04:09:49.428Z,86.43
2017-10-24T04:12:16.752Z,85.73
2017-10-24T04:14:44.061Z,70.03
2017-10-24T04:17:11.376Z,88.90
2017-10-24T04:19:38.696Z,100.70
2017-10-24T04:22:06.029Z,66.80
2017-10-24T04:24:33.349Z,98.17
2017-10-24T04:27:01.640Z,70.37
2017-10-24T04:29:28.956Z,61.63
2017-10-24T04:31:56.268Z,66.33
2017-10-24T04:34:23.644Z,62.13
2017-10-24T04:36:50.968Z,279.73
2017-10-24T04:39:18.284Z,55.77
2017-10-24T04:41:45.584Z,58.30
2017-10-24T04:44:12.912Z,52.10
2017-10-24T04:46:40.225Z,58.20
2017-10-24T04:49:07.565Z,54.30
2017-10-24T04:51:34.930Z,51.10
2017-10-24T04:54:02.250Z,58.40
2017-10-24T04:56:29.595Z,87.53
2017-10-24T04:58:56.944Z,53.70
2017-10-24T05:01:24.296Z,56.77
2017-10-24T05:03:51.593Z,58.13
2017-10-24T05:06:18.925Z,53.90
2017-10-24T05:08:46.230Z,57.70
2017-10-24T05:11:13.584Z,46.93
2017-10-24T05:13:40.918Z,52.73
2017-10-24T05:16:08.221Z,49.87
2017-10-24T05:18:35.544Z,51.50
2017-10-24T05:21:02.854Z,51.73
2017-10-24T05:23:30.226Z,48.73
2017-10-24T05:25:58.583Z,46.23
2017-10-24T05:28:25.910Z,45.40
2017-10-24T05:30:53.220Z,52.90
2017-10-24T05:33:20.547Z,45.90
2017-10-24T05:35:47.866Z,48.77
2017-10-24T05:38:15.201Z,48.47
2017-10-24T05:40:42.505Z,45.10
2017-10-24T05:43:09.809Z,47.83
2017-10-24T05:45:37.876Z,41.43
2017-10-24T05:48:05.199Z,49.30
2017-10-24T05:50:32.515Z,48.20
2017-10-24T05:52:59.817Z,56.80
2017-10-24T05:55:27.147Z,60.77
2017-10-24T05:57:54.474Z,60.97
2017-10-24T06:00:21.796Z,67.53
2017-10-24T06:02:49.112Z,83.50
2017-10-24T06:05:16.480Z,75.17
2017-10-24T06:07:43.794Z,65.37
2017-10-24T06:10:11.119Z,166.00
2017-10-24T06:12:38.445Z,63.30
2017-10-24T06:15:05.802Z,55.33
2017-10-24T06:17:33.322Z,53.30
2017-10-24T06:20:00.841Z,49.73
2017-10-24T06:22:28.161Z,56.00
2017-10-24T06:24:55.481Z,48.57
2017-10-24T06:27:22.804Z,54.00
2017-10-24T06:29:50.118Z,48.33
2017-10-24T06:32:17.436Z,47.70
2017-10-24T06:34:44.745Z,50.77
2017-10-24T06:37:12.098Z,45.87
2017-10-24T06:39:39.396Z,55.10
2017-10-24T06:42:06.737Z,43.50
2017-10-24T06:44:34.081Z,55.20
2017-10-24T06:47:01.391Z,46.53
2017-10-24T06:49:28.717Z,47.87
2017-10-24T06:51:56.046Z,46.50
2017-10-24T06:54:23.425Z,49.23
2017-10-24T06:56:51.218Z,43.43
2017-10-24T06:59:18.554Z,43.70
2017-10-24T07:01:45.905Z,46.40
2017-10-24T07:04:13.233Z,42.17
2017-10-24T07:06:40.545Z,47.97
2017-10-24T07:09:08.644Z,44.30
2017-10-24T07:11:35.941Z,41.80
2017-10-24T07:14:03.292Z,38.67
2017-10-24T07:16:30.612Z,34.00
2017-10-24T07:18:58.233Z,35.67
2017-10-24T07:21:26.104Z,37.93
2017-10-24T07:23:53.568Z,36.67
2017-10-24T07:26:21.049Z,29.10
2017-10-24T07:28:48.675Z,28.67
2017-10-24T07:31:16.407Z,33.83
2017-10-24T07:33:44.129Z,28.57
2017-10-24T07:36:12.814Z,33.90
2017-10-24T07:38:40.384Z,33.70
2017-10-24T07:41:08.077Z,32.67
2017-10-24T07:43:35.788Z,35.50
2017-10-24T07:46:03.360Z,34.93
2017-10-24T07:48:30.907Z,36.43
2017-10-24T07:50:59.385Z,38.50
2017-10-24T07:53:26.855Z,37.63
2017-10-24T07:55:54.615Z,40.60
2017-10-24T07:58:22.122Z,40.30
2017-10-24T08:00:49.655Z,43.63
2017-10-24T08:03:18.313Z,42.20
2017-10-24T08:05:45.915Z,45.93
2017-10-24T08:08:13.488Z,43.50
2017-10-24T08:10:41.131Z,42.43
2017-10-24T08:13:08.628Z,46.70
2017-10-24T08:15:36.120Z,45.03
2017-10-24T08:18:03.707Z,47.13
2017-10-24T08:20:31.354Z,43.00
2017-10-24T08:22:58.941Z,43.77
2017-10-24T08:25:26.350Z,43.47
2017-10-24T08:27:55.256Z,41.03
2017-10-24T08:30:22.688Z,39.27
2017-10-24T08:32:50.206Z,46.93
2017-10-24T08:35:17.885Z,42.90
2017-10-24T08:37:45.188Z,42.10
2017-10-24T08:40:12.510Z,42.43
2017-10-24T08:42:39.860Z,42.50
2017-10-24T08:45:07.173Z,40.30
2017-10-24T08:47:34.485Z,42.40
2017-10-24T08:50:01.853Z,48.30
2017-10-24T08:52:29.157Z,44.70
2017-10-24T08:54:56.496Z,39.57
2017-10-24T08:57:23.849Z,34.37
2017-10-24T08:59:51.222Z,40.87
2017-10-24T09:02:18.524Z,37.30
2017-10-24T09:04:45.888Z,38.70
2017-10-24T09:07:25.953Z,39.50
2017-10-24T09:09:53.306Z,36.90
2017-10-24T09:12:20.607Z,39.03
2017-10-24T09:14:47.927Z,35.33
2017-10-24T09:17:33.115Z,33.67
2017-10-24T09:20:01.307Z,32.53
2017-10-24T09:22:28.638Z,30.50
2017-10-24T09:24:55.948Z,35.40
2017-10-24T09:27:23.261Z,30.97
2017-10-24T09:29:50.577Z,39.83
2017-10-24T09:32:17.925Z,31.97
2017-10-24T09:34:45.237Z,34.20
2017-10-24T09:37:12.545Z,28.80
2017-10-24T09:39:40.058Z,26.87
2017-10-24T09:42:09.276Z,31.93
2017-10-24T09:44:36.957Z,31.53
2017-10-24T09:47:04.256Z,24.63
2017-10-24T09:49:31.601Z,24.63
2017-10-24T09:51:58.902Z,26.87
2017-10-24T09:54:26.233Z,24.20
2017-10-24T09:56:53.582Z,23.00
2017-10-24T09:59:36.756Z,23.80
2017-10-24T10:02:04.097Z,22.37
2017-10-24T10:04:31.413Z,23.87
2017-10-24T10:06:58.737Z,20.53
2017-10-24T10:09:26.061Z,21.77
2017-10-24T10:11:53.383Z,21.20
2017-10-24T10:14:23.528Z,21.40
2017-10-24T10:16:50.868Z,21.73
2017-10-24T10:19:19.061Z,22.13
2017-10-24T10:21:52.265Z,24.73
2017-10-24T10:24:25.713Z,21.97
2017-10-24T10:26:53.065Z,22.93
2017-10-24T10:29:20.359Z,23.87
2017-10-24T10:31:47.707Z,22.27
2017-10-24T10:34:15.012Z,21.77
2017-10-24T10:36:42.340Z,26.43
2017-10-24T10:39:09.645Z,21.80
2017-10-24T10:41:37.963Z,19.93
2017-10-24T10:44:05.262Z,21.70
2017-10-24T10:46:32.584Z,22.00
2017-10-24T10:48:59.910Z,20.43
2017-10-24T10:51:27.236Z,18.40
2017-10-24T10:53:54.560Z,17.97
2017-10-24T10:56:21.890Z,17.97
2017-10-24T10:58:49.207Z,16.60
2017-10-24T11:01:16.524Z,18.43
2017-10-24T11:03:43.848Z,17.83
2017-10-24T11:06:11.160Z,19.77
2017-10-24T11:08:38.492Z,23.03
2017-10-24T11:11:05.813Z,19.10
2017-10-24T11:13:33.137Z,14.60
2017-10-24T11:16:00.444Z,18.50
2017-10-24T11:18:27.904Z,15.73
2017-10-24T11:20:55.408Z,16.30
2017-10-24T11:23:22.708Z,14.70
2017-10-24T11:25:50.034Z,15.30
2017-10-24T11:28:17.328Z,14.90
2017-10-24T11:30:44.706Z,21.03
2017-10-24T11:33:12.036Z,14.47
2017-10-24T11:35:39.516Z,15.93
2017-10-24T11:38:06.852Z,13.60
2017-10-24T11:40:34.183Z,15.67
2017-10-24T11:43:01.502Z,11.57
2017-10-24T11:45:28.809Z,11.23
2017-10-24T11:47:56.153Z,11.87
2017-10-24T11:50:23.614Z,13.63
2017-10-24T11:52:50.924Z,11.97
2017-10-24T11:55:18.240Z,12.20
2017-10-24T11:57:45.559Z,13.00
2017-10-24T12:00:12.893Z,15.33
2017-10-24T12:02:40.241Z,12.33
2017-10-24T12:05:07.535Z,12.30
2017-10-24T12:07:34.853Z,12.40
2017-10-24T12:10:02.595Z,11.60
2017-10-24T12:12:29.907Z,10.57
2017-10-24T12:14:57.201Z,11.33
2017-10-24T12:17:24.592Z,12.07
2017-10-24T12:19:51.935Z,13.60
2017-10-24T12:22:19.249Z,9.93
2017-10-24T12:24:46.574Z,12.10
2017-10-24T12:27:13.880Z,14.50
2017-10-24T12:29:41.238Z,12.20
2017-10-24T12:32:08.528Z,12.10
2017-10-24T12:34:35.865Z,11.77
2017-10-24T12:37:03.164Z,10.07
2017-10-24T12:39:30.505Z,13.33
2017-10-24T12:41:58.416Z,13.23
2017-10-24T12:44:26.358Z,14.80
2017-10-24T12:46:53.653Z,11.33
2017-10-24T12:49:24.756Z,13.10
2017-10-24T12:51:52.060Z,10.33
2017-10-24T12:54:19.362Z,9.70
2017-10-24T12:56:46.687Z,8.30
2017-10-24T12:59:18.004Z,10.33
2017-10-24T13:01:45.308Z,10.37
2017-10-24T13:04:12.629Z,12.77
2017-10-24T13:06:39.951Z,11.70
2017-10-24T13:09:07.448Z,11.97
2017-10-24T13:11:34.751Z,11.23
2017-10-24T13:14:02.612Z,10.30
2017-10-24T13:16:30.245Z,13.23
2017-10-24T13:18:57.544Z,13.70
2017-10-24T13:21:24.903Z,13.07
2017-10-24T13:23:52.204Z,12.60
2017-10-24T13:26:20.056Z,12.97
2017-10-24T13:28:47.353Z,16.97
2017-10-24T13:31:14.684Z,11.80
2017-10-24T13:33:41.981Z,12.00
2017-10-24T13:36:09.333Z,13.93
2017-10-24T13:38:36.635Z,13.97
2017-10-24T13:41:03.961Z,14.60
2017-10-24T13:43:31.428Z,15.57
2017-10-24T13:45:58.745Z,19.13
2017-10-24T13:48:26.060Z,13.90
2017-10-24T13:50:53.380Z,18.10
2017-10-24T13:53:20.680Z,17.77
2017-10-24T13:55:47.984Z,15.27
2017-10-24T13:58:15.350Z,14.93
2017-10-24T14:00:42.648Z,17.30
2017-10-24T14:03:09.991Z,15.00
2017-10-24T14:05:43.000Z,16.90
2017-10-24T14:08:16.568Z,19.53
2017-10-24T14:10:43.881Z,16.00
2017-10-24T14:13:11.241Z,20.30
2017-10-24T14:15:38.561Z,16.87
2017-10-24T14:18:06.176Z,21.43
2017-10-24T14:20:33.480Z,22.60
2017-10-24T14:23:00.816Z,21.47
2017-10-24T14:25:28.117Z,24.47
2017-10-24T14:27:55.467Z,22.67
2017-10-24T14:30:22.809Z,24.77
2017-10-24T14:32:50.144Z,23.93
2017-10-24T14:35:17.452Z,25.90
2017-10-24T14:37:44.752Z,24.53
2017-10-24T14:40:12.096Z,25.13
2017-10-24T14:42:39.406Z,21.77
2017-10-24T14:45:07.152Z,24.30
2017-10-24T14:47:34.501Z,24.47
2017-10-24T14:50:01.814Z,27.70
2017-10-24T14:52:29.142Z,28.00
2017-10-24T14:54:56.472Z,24.37
2017-10-24T14:57:23.785Z,30.73
2017-10-24T14:59:51.127Z,29.17
2017-10-24T15:02:18.431Z,24.70
2017-10-24T15:04:45.752Z,27.80
2017-10-24T15:07:13.052Z,31.73
2017-10-24T15:09:40.389Z,33.50
2017-10-24T15:12:07.890Z,29.70
2017-10-24T15:14:35.196Z,31.83
2017-10-24T15:17:02.532Z,27.87
2017-10-24T15:19:29.840Z,31.50
2017-10-24T15:21:57.173Z,33.37
2017-10-24T15:24:24.484Z,27.53
2017-10-24T15:26:51.804Z,28.60
2017-10-24T15:29:19.120Z,35.50
2017-10-24T15:31:46.446Z,27.63
2017-10-24T15:34:13.753Z,31.50
2017-10-24T15:36:41.392Z,30.97
2017-10-24T15:39:08.851Z,32.93
2017-10-24T15:41:36.211Z,30.70
2017-10-24T15:44:03.518Z,30.23
2017-10-24T15:46:30.850Z,33.13
2017-10-24T15:48:58.332Z,32.50
2017-10-24T15:51:25.689Z,33.27
2017-10-24T15:53:53.197Z,42.30
2017-10-24T15:56:20.548Z,30.07
2017-10-24T15:58:47.872Z,35.57
2017-10-24T16:01:15.180Z,37.10
2017-10-24T16:03:42.513Z,33.47
2017-10-24T16:06:09.850Z,41.27
2017-10-24T16:08:37.191Z,37.27
2017-10-24T16:11:04.844Z,35.30
2017-10-24T16:13:32.172Z,37.37
2017-10-24T16:15:59.489Z,37.73
2017-10-24T16:18:26.817Z,39.00
2017-10-24T16:20:54.122Z,35.87
2017-10-24T16:23:21.436Z,35.67
2017-10-24T16:25:48.780Z,34.03
2017-10-24T16:28:16.099Z,42.73
2017-10-24T16:30:43.433Z,36.83
2017-10-24T16:33:10.760Z,38.50
2017-10-24T16:35:38.076Z,32.77
2017-10-24T16:38:05.401Z,36.47
2017-10-24T16:40:32.716Z,34.90
2017-10-24T16:43:00.052Z,34.33
2017-10-24T16:45:27.374Z,39.03
2017-10-24T16:47:54.678Z,34.03
2017-10-24T16:50:22.016Z,30.17
2017-10-24T16:52:49.328Z,31.30
2017-10-24T16:55:16.665Z,30.03
2017-10-24T16:57:43.968Z,27.97
2017-10-24T17:00:11.289Z,26.50
2017-10-24T17:02:38.880Z,29.13
2017-10-24T17:05:06.228Z,28.33
2017-10-24T17:07:33.530Z,29.00
2017-10-24T17:10:00.837Z,28.07
2017-10-24T17:12:28.408Z,33.77
2017-10-24T17:14:55.757Z,27.67
2017-10-24T17:17:23.072Z,33.23
2017-10-24T17:19:50.449Z,29.33
2017-10-24T17:22:17.768Z,28.10
2017-10-24T17:24:45.097Z,29.10
2017-10-24T17:27:12.450Z,33.60
2017-10-24T17:29:39.745Z,26.63
2017-10-24T17:32:07.060Z,24.37
2017-10-24T17:34:34.392Z,29.27
2017-10-24T17:37:01.713Z,25.17
2017-10-24T17:39:29.032Z,26.37
2017-10-24T17:41:56.552Z,25.60
2017-10-24T17:44:23.891Z,30.93
2017-10-24T17:46:51.192Z,25.80
2017-10-24T17:49:18.513Z,26.87
2017-10-24T17:51:45.817Z,26.40
2017-10-24T17:54:13.151Z,26.37
2017-10-24T17:56:40.449Z,29.73
2017-10-24T17:59:07.792Z,26.57
2017-10-24T18:01:35.105Z,27.13
2017-10-24T18:04:02.435Z,30.27
2017-10-24T18:06:29.737Z,30.60
2017-10-24T18:08:57.085Z,26.93
2017-10-24T18:11:24.380Z,35.47
2017-10-24T18:13:51.733Z,30.70
2017-10-24T18:16:19.078Z,27.33
2017-10-24T18:18:46.416Z,32.10
2017-10-24T18:21:13.725Z,32.73
2017-10-24T18:23:41.053Z,31.70
2017-10-24T18:26:08.373Z,31.33
2017-10-24T18:28:35.713Z,37.67
2017-10-24T18:31:03.111Z,33.43
2017-10-24T18:33:30.438Z,34.40
2017-10-24T18:35:57.757Z,36.33
2017-10-24T18:38:25.073Z,26.00
2017-10-24T18:40:52.389Z,25.07
2017-10-24T18:43:19.720Z,25.50
2017-10-24T18:45:47.041Z,28.40
2017-10-24T18:48:14.344Z,28.90
2017-10-24T18:50:41.661Z,28.03
2017-10-24T18:53:08.984Z,26.23
2017-10-24T18:55:36.312Z,31.10
2017-10-24T18:58:03.613Z,27.40
2017-10-24T19:00:31.873Z,28.93
2017-10-24T19:02:59.175Z,26.87
2017-10-24T19:05:26.480Z,25.27
2017-10-24T19:07:53.831Z,23.63
2017-10-24T19:10:21.148Z,24.77
2017-10-24T19:12:48.680Z,23.27
2017-10-24T19:15:16.000Z,27.20
2017-10-24T19:17:43.321Z,20.63
2017-10-24T19:20:10.657Z,21.33
2017-10-24T19:22:38.049Z,18.07
2017-10-24T19:25:05.356Z,22.27
2017-10-24T19:27:32.684Z,23.60
2017-10-24T19:30:00.001Z,17.30
2017-10-24T19:32:27.325Z,20.10
2017-10-24T19:34:54.642Z,19.83
2017-10-24T19:37:22.279Z,23.90
2017-10-24T19:39:49.577Z,23.40
2017-10-24T19:42:16.904Z,18.37
2017-10-24T19:44:44.208Z,21.93
2017-10-24T19:47:11.536Z,21.10
2017-10-24T19:49:38.837Z,21.60
2017-10-24T19:52:06.162Z,19.40
2017-10-24T19:54:33.488Z,17.43
2017-10-24T19:57:00.793Z,18.83
2017-10-24T19:59:28.112Z,18.37
2017-10-24T20:01:55.436Z,21.10
2017-10-24T20:04:22.753Z,18.10
2017-10-24T20:06:50.065Z,20.67
2017-10-24T20:09:17.381Z,18.50
2017-10-24T20:11:44.700Z,17.20
2017-10-24T20:14:12.016Z,17.30
2017-10-24T20:16:39.338Z,15.17
2017-10-24T20:19:06.859Z,16.43
2017-10-24T20:21:34.173Z,15.93
2017-10-24T20:24:01.486Z,15.80
2017-10-24T20:26:28.832Z,21.03
2017-10-24T20:28:56.140Z,23.80
2017-10-24T20:31:23.477Z,17.10
2017-10-24T20:33:50.771Z,15.13
2017-10-24T20:36:18.099Z,15.03
2017-10-24T20:38:45.392Z,14.83
2017-10-24T20:41:12.736Z,15.50
2017-10-24T20:43:40.088Z,14.90
2017-10-24T20:46:07.416Z,12.13
2017-10-24T20:48:34.724Z,12.30
2017-10-24T20:51:02.045Z,12.90
2017-10-24T20:53:29.380Z,13.27
2017-10-24T20:55:56.689Z,11.57
2017-10-24T20:58:24.021Z,13.53
2017-10-24T21:00:51.313Z,13.70
2017-10-24T21:03:18.652Z,13.20
2017-10-24T21:05:45.948Z,13.57
2017-10-24T21:08:16.713Z,12.70
2017-10-24T21:10:44.020Z,12.10
2017-10-24T21:13:11.336Z,16.00
2017-10-24T21:15:38.692Z,10.80
2017-10-24T21:18:06.067Z,14.70
2017-10-24T21:20:33.422Z,12.33
2017-10-24T21:23:00.744Z,10.73
2017-10-24T21:25:28.056Z,12.00
2017-10-24T21:27:55.404Z,11.10
2017-10-24T21:30:22.693Z,11.57
2017-10-24T21:32:50.016Z,9.83
2017-10-24T21:35:17.312Z,12.20
2017-10-24T21:37:44.604Z,13.03
2017-10-24T21:40:11.921Z,9.90
2017-10-24T21:42:39.224Z,10.20
2017-10-24T21:45:06.541Z,12.17
2017-10-24T21:47:33.861Z,10.93
2017-10-24T21:50:01.249Z,11.20
2017-10-24T21:52:28.696Z,9.47
2017-10-24T21:54:56.007Z,11.20
2017-10-24T21:57:23.334Z,8.70
2017-10-24T21:59:50.641Z,9.30
2017-10-24T22:02:17.976Z,10.30
2017-10-24T22:04:45.291Z,9.30
2017-10-24T22:07:12.628Z,9.97
2017-10-24T22:09:39.956Z,9.20
2017-10-24T22:12:07.248Z,10.97
2017-10-24T22:14:34.541Z,9.40
2017-10-24T22:17:02.004Z,10.70
2017-10-24T22:19:30.137Z,9.10
2017-10-24T22:21:57.462Z,10.47
2017-10-24T22:24:24.763Z,9.70
2017-10-24T22:26:52.182Z,9.50
2017-10-24T22:29:19.474Z,11.03
2017-10-24T22:31:46.784Z,9.80
2017-10-24T22:34:14.093Z,11.30
2017-10-24T22:36:41.404Z,10.17
2017-10-24T22:39:08.716Z,9.20
2017-10-24T22:41:36.029Z,15.83
2017-10-24T22:44:05.533Z,11.90
2017-10-24T22:46:32.848Z,11.80
2017-10-24T22:49:00.165Z,13.80
2017-10-24T22:51:27.496Z,11.90
2017-10-24T22:53:54.789Z,12.70
2017-10-24T22:56:22.092Z,13.70
2017-10-24T22:58:49.428Z,14.43
2017-10-24T23:01:16.746Z,12.70
2017-10-24T23:03:44.065Z,15.70
2017-10-24T23:06:11.366Z,15.07
2017-10-24T23:08:38.701Z,18.10
2017-10-24T23:11:05.991Z,15.20
2017-10-24T23:13:33.336Z,14.03
2017-10-24T23:16:00.693Z,14.20
2017-10-24T23:18:27.992Z,13.90
2017-10-24T23:20:55.296Z,16.20
2017-10-24T23:23:22.604Z,16.10
2017-10-24T23:25:50.811Z,15.97
2017-10-24T23:28:18.124Z,14.43
2017-10-24T23:30:45.420Z,14.20
2017-10-24T23:33:12.732Z,12.90
2017-10-24T23:35:40.056Z,14.90
2017-10-24T23:38:07.404Z,15.73
2017-10-24T23:40:35.004Z,17.20
2017-10-24T23:43:02.308Z,16.60
2017-10-24T23:45:29.652Z,18.70
2017-10-24T23:47:56.948Z,18.90
2017-10-24T23:50:24.310Z,19.00
2017-10-24T23:52:51.609Z,21.10
2017-10-24T23:55:18.925Z,21.70
2017-10-24T23:57:46.296Z,21.87
